sensor_id;sensor_type;location;lat;lon;timestamp;temperature;humidity
47382;DHT22;33128;51.580;5.170;2023-01-15T00:01:34;11.00;99.90
47382;DHT22;33128;51.580;5.170;2023-01-15T00:04:00;11.00;99.90
47382;DHT22;33128;51.580;5.170;2023-01-15T00:06:30;10.90;99.90
47382;DHT22;33128;51.580;5.170;2023-01-15T00:08:57;10.80;99.90
47382;DHT22;33128;51.580;5.170;2023-01-15T00:11:23;10.70;99.90
47382;DHT22;33128;51.580;5.170;2023-01-15T00:13:49;10.80;99.90
47382;DHT22;33128;51.580;5.170;2023-01-15T00:16:20;10.80;99.90
47382;DHT22;33128;51.580;5.170;2023-01-15T00:18:57;10.70;99.90
47382;DHT22;33128;51.580;5.170;2023-01-15T00:21:25;10.70;99.90
47382;DHT22;33128;51.580;5.170;2023-01-15T00:23:51;10.70;99.90
47382;DHT22;33128;51.580;5.170;2023-01-15T00:26:36;10.70;99.90
47382;DHT22;33128;51.580;5.170;2023-01-15T00:29:22;10.80;99.90
47382;DHT22;33128;51.580;5.170;2023-01-15T00:31:56;10.70;99.90
47382;DHT22;33128;51.580;5.170;2023-01-15T00:34:22;10.70;99.90
47382;DHT22;33128;51.580;5.170;2023-01-15T00:36:48;10.60;99.90
47382;DHT22;33128;51.580;5.170;2023-01-15T00:39:13;10.60;99.90
47382;DHT22;33128;51.580;5.170;2023-01-15T00:41:39;10.60;99.90
47382;DHT22;33128;51.580;5.170;2023-01-15T00:44:05;10.60;99.90
47382;DHT22;33128;51.580;5.170;2023-01-15T00:46:30;10.60;99.90
47382;DHT22;33128;51.580;5.170;2023-01-15T00:48:56;10.60;99.90
47382;DHT22;33128;51.580;5.170;2023-01-15T00:51:22;10.50;99.90
47382;DHT22;33128;51.580;5.170;2023-01-15T00:53:47;10.50;99.90
47382;DHT22;33128;51.580;5.170;2023-01-15T00:56:13;10.60;99.90
47382;DHT22;33128;51.580;5.170;2023-01-15T00:58:38;10.60;99.90
47382;DHT22;33128;51.580;5.170;2023-01-15T01:01:04;10.60;99.90
47382;DHT22;33128;51.580;5.170;2023-01-15T01:03:30;10.60;99.90
47382;DHT22;33128;51.580;5.170;2023-01-15T01:06:02;10.70;99.90
47382;DHT22;33128;51.580;5.170;2023-01-15T01:08:29;10.60;99.90
47382;DHT22;33128;51.580;5.170;2023-01-15T01:11:05;10.60;99.90
47382;DHT22;33128;51.580;5.170;2023-01-15T01:13:32;10.60;99.90
47382;DHT22;33128;51.580;5.170;2023-01-15T01:15:57;10.50;99.90
47382;DHT22;33128;51.580;5.170;2023-01-15T01:18:23;10.50;99.90
47382;DHT22;33128;51.580;5.170;2023-01-15T01:20:49;10.50;99.90
47382;DHT22;33128;51.580;5.170;2023-01-15T01:23:14;10.60;99.90
47382;DHT22;33128;51.580;5.170;2023-01-15T01:25:40;10.60;99.90
47382;DHT22;33128;51.580;5.170;2023-01-15T01:28:06;10.60;99.90
47382;DHT22;33128;51.580;5.170;2023-01-15T01:30:31;10.60;99.90
47382;DHT22;33128;51.580;5.170;2023-01-15T01:32:57;10.50;99.90
47382;DHT22;33128;51.580;5.170;2023-01-15T01:35:22;10.50;99.90
47382;DHT22;33128;51.580;5.170;2023-01-15T01:37:51;10.50;99.90
47382;DHT22;33128;51.580;5.170;2023-01-15T01:40:18;10.40;99.90
47382;DHT22;33128;51.580;5.170;2023-01-15T01:42:43;10.50;99.90
47382;DHT22;33128;51.580;5.170;2023-01-15T01:45:21;10.50;99.90
47382;DHT22;33128;51.580;5.170;2023-01-15T01:47:50;10.40;99.90
47382;DHT22;33128;51.580;5.170;2023-01-15T01:50:18;10.40;99.90
47382;DHT22;33128;51.580;5.170;2023-01-15T01:52:52;10.40;99.90
47382;DHT22;33128;51.580;5.170;2023-01-15T01:55:21;10.40;99.90
47382;DHT22;33128;51.580;5.170;2023-01-15T01:57:50;10.40;99.90
47382;DHT22;33128;51.580;5.170;2023-01-15T02:00:16;10.40;99.90
47382;DHT22;33128;51.580;5.170;2023-01-15T02:02:43;10.40;99.90
47382;DHT22;33128;51.580;5.170;2023-01-15T02:05:19;10.40;99.90
47382;DHT22;33128;51.580;5.170;2023-01-15T02:07:46;10.30;99.90
47382;DHT22;33128;51.580;5.170;2023-01-15T02:10:13;10.20;99.90
47382;DHT22;33128;51.580;5.170;2023-01-15T02:12:41;10.30;99.90
47382;DHT22;33128;51.580;5.170;2023-01-15T02:15:17;10.40;99.90
47382;DHT22;33128;51.580;5.170;2023-01-15T02:17:52;10.40;99.90
47382;DHT22;33128;51.580;5.170;2023-01-15T02:20:21;10.40;99.90
47382;DHT22;33128;51.580;5.170;2023-01-15T02:26:12;10.30;99.90
47382;DHT22;33128;51.580;5.170;2023-01-15T02:28:44;10.30;99.90
47382;DHT22;33128;51.580;5.170;2023-01-15T02:31:24;10.30;99.90
47382;DHT22;33128;51.580;5.170;2023-01-15T02:36:30;10.30;99.90
47382;DHT22;33128;51.580;5.170;2023-01-15T02:38:58;10.30;99.90
47382;DHT22;33128;51.580;5.170;2023-01-15T02:41:31;10.30;99.90
47382;DHT22;33128;51.580;5.170;2023-01-15T02:44:02;10.20;99.90
47382;DHT22;33128;51.580;5.170;2023-01-15T02:46:32;10.10;99.90
47382;DHT22;33128;51.580;5.170;2023-01-15T02:48:59;10.20;99.90
47382;DHT22;33128;51.580;5.170;2023-01-15T02:51:32;10.10;99.90
47382;DHT22;33128;51.580;5.170;2023-01-15T02:54:03;10.10;99.90
47382;DHT22;33128;51.580;5.170;2023-01-15T02:56:31;10.10;99.90
47382;DHT22;33128;51.580;5.170;2023-01-15T02:59:05;10.00;99.90
47382;DHT22;33128;51.580;5.170;2023-01-15T03:01:45;10.10;99.90
47382;DHT22;33128;51.580;5.170;2023-01-15T03:07:24;10.20;99.90
47382;DHT22;33128;51.580;5.170;2023-01-15T03:09:51;10.10;99.90
47382;DHT22;33128;51.580;5.170;2023-01-15T03:12:25;9.90;99.90
47382;DHT22;33128;51.580;5.170;2023-01-15T03:17:36;10.10;99.90
47382;DHT22;33128;51.580;5.170;2023-01-15T03:20:17;10.20;99.90
47382;DHT22;33128;51.580;5.170;2023-01-15T03:22:46;10.20;99.90
47382;DHT22;33128;51.580;5.170;2023-01-15T03:25:19;10.20;99.90
47382;DHT22;33128;51.580;5.170;2023-01-15T03:27:46;10.20;99.90
47382;DHT22;33128;51.580;5.170;2023-01-15T03:30:16;10.20;99.90
47382;DHT22;33128;51.580;5.170;2023-01-15T03:32:42;10.20;99.90
47382;DHT22;33128;51.580;5.170;2023-01-15T03:35:44;10.20;99.90
47382;DHT22;33128;51.580;5.170;2023-01-15T03:38:11;10.20;99.90
47382;DHT22;33128;51.580;5.170;2023-01-15T03:40:48;10.20;99.90
47382;DHT22;33128;51.580;5.170;2023-01-15T03:43:14;10.20;99.90
47382;DHT22;33128;51.580;5.170;2023-01-15T03:55:07;10.10;99.90
47382;DHT22;33128;51.580;5.170;2023-01-15T03:57:40;10.10;99.90
47382;DHT22;33128;51.580;5.170;2023-01-15T04:00:12;10.10;99.90
47382;DHT22;33128;51.580;5.170;2023-01-15T04:02:41;10.10;99.90
47382;DHT22;33128;51.580;5.170;2023-01-15T04:05:08;10.00;99.90
47382;DHT22;33128;51.580;5.170;2023-01-15T04:07:34;10.10;99.90
47382;DHT22;33128;51.580;5.170;2023-01-15T04:10:00;10.10;99.90
47382;DHT22;33128;51.580;5.170;2023-01-15T04:12:28;10.00;99.90
47382;DHT22;33128;51.580;5.170;2023-01-15T04:14:57;10.10;99.90
47382;DHT22;33128;51.580;5.170;2023-01-15T04:17:22;10.10;99.90
47382;DHT22;33128;51.580;5.170;2023-01-15T04:19:48;10.10;99.90
47382;DHT22;33128;51.580;5.170;2023-01-15T04:22:13;10.10;99.90
47382;DHT22;33128;51.580;5.170;2023-01-15T04:24:39;10.10;99.90
47382;DHT22;33128;51.580;5.170;2023-01-15T04:27:04;10.00;99.90
47382;DHT22;33128;51.580;5.170;2023-01-15T04:29:30;10.00;99.90
47382;DHT22;33128;51.580;5.170;2023-01-15T04:31:56;9.90;99.90
47382;DHT22;33128;51.580;5.170;2023-01-15T04:34:24;9.90;99.90
47382;DHT22;33128;51.580;5.170;2023-01-15T04:36:50;9.90;99.90
47382;DHT22;33128;51.580;5.170;2023-01-15T04:39:16;10.00;99.90
47382;DHT22;33128;51.580;5.170;2023-01-15T04:41:41;10.00;99.90
47382;DHT22;33128;51.580;5.170;2023-01-15T04:44:26;9.90;99.90
47382;DHT22;33128;51.580;5.170;2023-01-15T04:46:54;10.00;99.90
47382;DHT22;33128;51.580;5.170;2023-01-15T04:49:19;9.90;99.90
47382;DHT22;33128;51.580;5.170;2023-01-15T04:51:48;9.90;99.90
47382;DHT22;33128;51.580;5.170;2023-01-15T04:54:14;9.90;99.90
47382;DHT22;33128;51.580;5.170;2023-01-15T04:56:45;9.90;99.90
47382;DHT22;33128;51.580;5.170;2023-01-15T04:59:12;9.90;99.90
47382;DHT22;33128;51.580;5.170;2023-01-15T05:01:38;9.90;99.90
47382;DHT22;33128;51.580;5.170;2023-01-15T05:04:05;9.80;99.90
47382;DHT22;33128;51.580;5.170;2023-01-15T05:06:31;9.80;99.90
47382;DHT22;33128;51.580;5.170;2023-01-15T05:08:57;9.70;99.90
47382;DHT22;33128;51.580;5.170;2023-01-15T05:11:23;9.70;99.90
47382;DHT22;33128;51.580;5.170;2023-01-15T05:13:49;9.70;99.90
47382;DHT22;33128;51.580;5.170;2023-01-15T05:16:17;9.70;99.90
47382;DHT22;33128;51.580;5.170;2023-01-15T05:18:45;9.70;99.90
47382;DHT22;33128;51.580;5.170;2023-01-15T05:21:15;9.70;99.90
47382;DHT22;33128;51.580;5.170;2023-01-15T05:23:42;9.80;99.90
47382;DHT22;33128;51.580;5.170;2023-01-15T05:26:07;9.90;99.90
47382;DHT22;33128;51.580;5.170;2023-01-15T05:28:33;10.00;99.90
47382;DHT22;33128;51.580;5.170;2023-01-15T05:31:04;9.90;99.90
47382;DHT22;33128;51.580;5.170;2023-01-15T05:33:29;9.90;99.90
47382;DHT22;33128;51.580;5.170;2023-01-15T05:36:00;10.00;99.90
47382;DHT22;33128;51.580;5.170;2023-01-15T05:38:25;9.90;99.90
47382;DHT22;33128;51.580;5.170;2023-01-15T05:40:51;9.90;99.90
47382;DHT22;33128;51.580;5.170;2023-01-15T05:43:17;9.90;99.90
47382;DHT22;33128;51.580;5.170;2023-01-15T05:45:42;9.90;99.90
47382;DHT22;33128;51.580;5.170;2023-01-15T05:48:08;9.90;99.90
47382;DHT22;33128;51.580;5.170;2023-01-15T05:50:33;9.90;99.90
47382;DHT22;33128;51.580;5.170;2023-01-15T05:52:59;9.80;99.90
47382;DHT22;33128;51.580;5.170;2023-01-15T05:55:24;9.80;99.90
47382;DHT22;33128;51.580;5.170;2023-01-15T05:57:50;9.80;99.90
47382;DHT22;33128;51.580;5.170;2023-01-15T06:00:17;9.80;99.90
47382;DHT22;33128;51.580;5.170;2023-01-15T06:02:43;9.90;99.90
47382;DHT22;33128;51.580;5.170;2023-01-15T06:05:08;10.00;99.90
47382;DHT22;33128;51.580;5.170;2023-01-15T06:07:34;10.10;99.90
47382;DHT22;33128;51.580;5.170;2023-01-15T06:09:59;10.20;99.90
47382;DHT22;33128;51.580;5.170;2023-01-15T06:12:25;10.20;99.90
47382;DHT22;33128;51.580;5.170;2023-01-15T06:14:51;10.30;99.90
47382;DHT22;33128;51.580;5.170;2023-01-15T06:17:17;10.30;99.90
47382;DHT22;33128;51.580;5.170;2023-01-15T06:19:42;10.30;99.90
47382;DHT22;33128;51.580;5.170;2023-01-15T06:22:08;10.30;99.90
47382;DHT22;33128;51.580;5.170;2023-01-15T06:24:33;10.30;99.90
47382;DHT22;33128;51.580;5.170;2023-01-15T06:26:59;10.30;99.90
47382;DHT22;33128;51.580;5.170;2023-01-15T06:29:25;10.30;99.90
47382;DHT22;33128;51.580;5.170;2023-01-15T06:31:51;10.30;99.90
47382;DHT22;33128;51.580;5.170;2023-01-15T06:34:16;10.40;99.90
47382;DHT22;33128;51.580;5.170;2023-01-15T06:36:43;10.40;99.90
47382;DHT22;33128;51.580;5.170;2023-01-15T06:39:09;10.40;99.90
47382;DHT22;33128;51.580;5.170;2023-01-15T06:41:34;10.40;99.90
47382;DHT22;33128;51.580;5.170;2023-01-15T06:44:19;10.30;99.90
47382;DHT22;33128;51.580;5.170;2023-01-15T06:47:12;10.30;99.90
47382;DHT22;33128;51.580;5.170;2023-01-15T06:49:54;10.30;99.90
47382;DHT22;33128;51.580;5.170;2023-01-15T06:52:20;10.30;99.90
47382;DHT22;33128;51.580;5.170;2023-01-15T06:54:46;10.30;99.90
47382;DHT22;33128;51.580;5.170;2023-01-15T06:57:11;10.30;99.90
47382;DHT22;33128;51.580;5.170;2023-01-15T06:59:38;10.30;99.90
47382;DHT22;33128;51.580;5.170;2023-01-15T07:02:03;10.40;99.90
47382;DHT22;33128;51.580;5.170;2023-01-15T07:04:29;10.30;99.90
47382;DHT22;33128;51.580;5.170;2023-01-15T07:06:55;10.30;99.90
47382;DHT22;33128;51.580;5.170;2023-01-15T07:09:21;10.40;99.90
47382;DHT22;33128;51.580;5.170;2023-01-15T07:11:46;10.40;99.90
47382;DHT22;33128;51.580;5.170;2023-01-15T07:14:23;10.30;99.90
47382;DHT22;33128;51.580;5.170;2023-01-15T07:16:49;10.30;99.90
47382;DHT22;33128;51.580;5.170;2023-01-15T07:19:15;10.40;99.90
47382;DHT22;33128;51.580;5.170;2023-01-15T07:21:44;10.30;99.90
47382;DHT22;33128;51.580;5.170;2023-01-15T07:24:10;10.30;99.90
47382;DHT22;33128;51.580;5.170;2023-01-15T07:26:36;10.30;99.90
47382;DHT22;33128;51.580;5.170;2023-01-15T07:29:03;10.30;99.90
47382;DHT22;33128;51.580;5.170;2023-01-15T07:31:29;10.30;99.90
47382;DHT22;33128;51.580;5.170;2023-01-15T07:33:55;10.30;99.90
47382;DHT22;33128;51.580;5.170;2023-01-15T07:36:21;10.30;99.90
47382;DHT22;33128;51.580;5.170;2023-01-15T07:38:47;10.30;99.90
47382;DHT22;33128;51.580;5.170;2023-01-15T07:41:13;10.30;99.90
47382;DHT22;33128;51.580;5.170;2023-01-15T07:43:57;10.30;99.90
47382;DHT22;33128;51.580;5.170;2023-01-15T07:47:01;10.20;99.90
47382;DHT22;33128;51.580;5.170;2023-01-15T07:49:46;10.30;99.90
47382;DHT22;33128;51.580;5.170;2023-01-15T07:52:19;10.30;99.90
47382;DHT22;33128;51.580;5.170;2023-01-15T07:54:46;10.30;99.90
47382;DHT22;33128;51.580;5.170;2023-01-15T07:57:13;10.30;99.90
47382;DHT22;33128;51.580;5.170;2023-01-15T07:59:39;10.30;99.90
47382;DHT22;33128;51.580;5.170;2023-01-15T08:02:05;10.20;99.90
47382;DHT22;33128;51.580;5.170;2023-01-15T08:04:31;10.20;99.90
47382;DHT22;33128;51.580;5.170;2023-01-15T08:07:01;10.30;99.90
47382;DHT22;33128;51.580;5.170;2023-01-15T08:09:27;10.20;99.90
47382;DHT22;33128;51.580;5.170;2023-01-15T08:11:53;10.20;99.90
47382;DHT22;33128;51.580;5.170;2023-01-15T08:14:37;10.20;99.90
47382;DHT22;33128;51.580;5.170;2023-01-15T08:17:21;10.30;99.90
47382;DHT22;33128;51.580;5.170;2023-01-15T08:19:47;10.40;99.90
47382;DHT22;33128;51.580;5.170;2023-01-15T08:22:13;10.40;99.90
47382;DHT22;33128;51.580;5.170;2023-01-15T08:24:38;10.40;99.90
47382;DHT22;33128;51.580;5.170;2023-01-15T08:27:04;10.50;99.90
47382;DHT22;33128;51.580;5.170;2023-01-15T08:29:30;10.60;99.90
47382;DHT22;33128;51.580;5.170;2023-01-15T08:31:55;10.50;99.90
47382;DHT22;33128;51.580;5.170;2023-01-15T08:34:21;10.50;99.90
47382;DHT22;33128;51.580;5.170;2023-01-15T08:36:46;10.60;99.90
47382;DHT22;33128;51.580;5.170;2023-01-15T08:39:14;10.60;99.90
47382;DHT22;33128;51.580;5.170;2023-01-15T08:41:40;10.50;99.90
47382;DHT22;33128;51.580;5.170;2023-01-15T08:44:05;10.40;99.90
47382;DHT22;33128;51.580;5.170;2023-01-15T08:46:31;10.50;99.90
47382;DHT22;33128;51.580;5.170;2023-01-15T08:48:57;10.50;99.90
47382;DHT22;33128;51.580;5.170;2023-01-15T08:51:22;10.60;99.90
47382;DHT22;33128;51.580;5.170;2023-01-15T08:53:48;10.50;99.90
47382;DHT22;33128;51.580;5.170;2023-01-15T08:56:16;10.40;99.90
47382;DHT22;33128;51.580;5.170;2023-01-15T08:58:42;10.40;99.90
47382;DHT22;33128;51.580;5.170;2023-01-15T09:01:11;10.30;99.90
47382;DHT22;33128;51.580;5.170;2023-01-15T09:03:40;10.30;99.90
47382;DHT22;33128;51.580;5.170;2023-01-15T09:06:06;10.40;99.90
47382;DHT22;33128;51.580;5.170;2023-01-15T09:08:32;10.40;99.90
47382;DHT22;33128;51.580;5.170;2023-01-15T09:10:59;10.40;99.90
47382;DHT22;33128;51.580;5.170;2023-01-15T09:13:25;10.20;99.90
47382;DHT22;33128;51.580;5.170;2023-01-15T09:15:51;10.30;99.90
47382;DHT22;33128;51.580;5.170;2023-01-15T09:18:17;10.30;99.90
47382;DHT22;33128;51.580;5.170;2023-01-15T09:20:45;10.40;99.90
47382;DHT22;33128;51.580;5.170;2023-01-15T09:23:11;10.40;99.90
47382;DHT22;33128;51.580;5.170;2023-01-15T09:25:37;10.40;99.90
47382;DHT22;33128;51.580;5.170;2023-01-15T09:28:02;10.40;99.90
47382;DHT22;33128;51.580;5.170;2023-01-15T09:30:28;10.50;99.90
47382;DHT22;33128;51.580;5.170;2023-01-15T09:32:54;10.20;99.90
47382;DHT22;33128;51.580;5.170;2023-01-15T09:35:21;10.40;99.90
47382;DHT22;33128;51.580;5.170;2023-01-15T09:37:50;10.30;99.90
47382;DHT22;33128;51.580;5.170;2023-01-15T09:43:05;10.30;99.90
47382;DHT22;33128;51.580;5.170;2023-01-15T09:45:42;10.40;99.90
47382;DHT22;33128;51.580;5.170;2023-01-15T09:56:21;10.50;99.90
47382;DHT22;33128;51.580;5.170;2023-01-15T09:58:48;10.60;99.90
47382;DHT22;33128;51.580;5.170;2023-01-15T10:01:28;10.50;99.90
47382;DHT22;33128;51.580;5.170;2023-01-15T10:07:12;10.30;99.90
47382;DHT22;33128;51.580;5.170;2023-01-15T10:09:42;10.50;99.90
47382;DHT22;33128;51.580;5.170;2023-01-15T10:12:25;10.30;99.90
47382;DHT22;33128;51.580;5.170;2023-01-15T10:15:14;10.20;99.90
47382;DHT22;33128;51.580;5.170;2023-01-15T10:17:47;10.40;99.90
47382;DHT22;33128;51.580;5.170;2023-01-15T10:20:28;10.40;99.90
47382;DHT22;33128;51.580;5.170;2023-01-15T10:25:50;10.50;99.90
47382;DHT22;33128;51.580;5.170;2023-01-15T10:28:29;10.50;99.90
47382;DHT22;33128;51.580;5.170;2023-01-15T10:31:08;10.50;99.90
47382;DHT22;33128;51.580;5.170;2023-01-15T10:34:08;10.60;99.90
47382;DHT22;33128;51.580;5.170;2023-01-15T10:36:42;10.50;99.90
47382;DHT22;33128;51.580;5.170;2023-01-15T10:41:59;10.60;99.90
47382;DHT22;33128;51.580;5.170;2023-01-15T10:44:52;10.70;99.90
47382;DHT22;33128;51.580;5.170;2023-01-15T10:47:29;10.60;99.90
47382;DHT22;33128;51.580;5.170;2023-01-15T10:49:57;10.70;99.90
47382;DHT22;33128;51.580;5.170;2023-01-15T10:52:30;10.60;99.90
47382;DHT22;33128;51.580;5.170;2023-01-15T10:55:13;10.70;99.90
47382;DHT22;33128;51.580;5.170;2023-01-15T10:58:40;10.70;99.90
47382;DHT22;33128;51.580;5.170;2023-01-15T11:00:40;10.70;99.90
47382;DHT22;33128;51.580;5.170;2023-01-15T11:03:12;10.70;99.90
47382;DHT22;33128;51.580;5.170;2023-01-15T11:05:41;10.80;99.90
47382;DHT22;33128;51.580;5.170;2023-01-15T11:08:18;10.80;99.90
47382;DHT22;33128;51.580;5.170;2023-01-15T11:10:46;10.80;99.90
47382;DHT22;33128;51.580;5.170;2023-01-15T11:13:21;10.90;99.90
47382;DHT22;33128;51.580;5.170;2023-01-15T11:16:17;10.70;99.90
47382;DHT22;33128;51.580;5.170;2023-01-15T11:19:04;10.80;99.90
47382;DHT22;33128;51.580;5.170;2023-01-15T11:21:50;10.80;99.90
47382;DHT22;33128;51.580;5.170;2023-01-15T11:24:17;10.90;99.90
47382;DHT22;33128;51.580;5.170;2023-01-15T11:26:47;10.90;99.90
47382;DHT22;33128;51.580;5.170;2023-01-15T11:29:29;10.80;99.90
47382;DHT22;33128;51.580;5.170;2023-01-15T11:31:55;10.90;99.90
47382;DHT22;33128;51.580;5.170;2023-01-15T11:34:21;11.00;99.90
47382;DHT22;33128;51.580;5.170;2023-01-15T11:37:03;10.90;99.90
47382;DHT22;33128;51.580;5.170;2023-01-15T11:39:29;10.80;99.90
47382;DHT22;33128;51.580;5.170;2023-01-15T11:42:04;10.70;99.90
47382;DHT22;33128;51.580;5.170;2023-01-15T11:44:53;10.90;99.90
47382;DHT22;33128;51.580;5.170;2023-01-15T11:47:37;10.80;99.90
47382;DHT22;33128;51.580;5.170;2023-01-15T11:50:22;10.80;99.90
47382;DHT22;33128;51.580;5.170;2023-01-15T11:53:14;10.90;99.90
47382;DHT22;33128;51.580;5.170;2023-01-15T11:55:57;10.80;99.90
47382;DHT22;33128;51.580;5.170;2023-01-15T11:58:26;10.80;99.90
47382;DHT22;33128;51.580;5.170;2023-01-15T12:00:52;10.70;99.90
47382;DHT22;33128;51.580;5.170;2023-01-15T12:03:22;10.70;99.90
47382;DHT22;33128;51.580;5.170;2023-01-15T12:06:08;10.70;99.90
47382;DHT22;33128;51.580;5.170;2023-01-15T12:08:50;10.70;99.90
47382;DHT22;33128;51.580;5.170;2023-01-15T12:11:19;10.80;99.90
47382;DHT22;33128;51.580;5.170;2023-01-15T12:17:00;10.70;99.90
47382;DHT22;33128;51.580;5.170;2023-01-15T12:25:18;10.70;99.90
47382;DHT22;33128;51.580;5.170;2023-01-15T12:27:52;10.70;99.90
47382;DHT22;33128;51.580;5.170;2023-01-15T12:36:01;10.70;99.90
47382;DHT22;33128;51.580;5.170;2023-01-15T12:41:15;10.60;99.90
47382;DHT22;33128;51.580;5.170;2023-01-15T12:43:46;10.50;99.90
47382;DHT22;33128;51.580;5.170;2023-01-15T12:46:33;10.70;99.90
47382;DHT22;33128;51.580;5.170;2023-01-15T12:49:16;10.70;99.90
47382;DHT22;33128;51.580;5.170;2023-01-15T12:51:54;10.60;99.90
47382;DHT22;33128;51.580;5.170;2023-01-15T12:54:27;10.70;99.90
47382;DHT22;33128;51.580;5.170;2023-01-15T12:57:07;10.80;99.90
47382;DHT22;33128;51.580;5.170;2023-01-15T12:59:39;11.00;99.90
47382;DHT22;33128;51.580;5.170;2023-01-15T13:02:34;11.00;99.90
47382;DHT22;33128;51.580;5.170;2023-01-15T13:05:29;10.90;99.90
47382;DHT22;33128;51.580;5.170;2023-01-15T13:07:57;10.90;99.90
47382;DHT22;33128;51.580;5.170;2023-01-15T13:10:27;11.00;99.90
47382;DHT22;33128;51.580;5.170;2023-01-15T13:13:07;10.90;99.90
47382;DHT22;33128;51.580;5.170;2023-01-15T13:15:41;10.90;99.90
47382;DHT22;33128;51.580;5.170;2023-01-15T13:21:17;10.80;99.90
47382;DHT22;33128;51.580;5.170;2023-01-15T13:26:45;10.90;99.90
47382;DHT22;33128;51.580;5.170;2023-01-15T13:29:24;10.80;99.90
47382;DHT22;33128;51.580;5.170;2023-01-15T13:34:55;10.90;99.90
47382;DHT22;33128;51.580;5.170;2023-01-15T13:37:31;10.80;99.90
47382;DHT22;33128;51.580;5.170;2023-01-15T13:40:48;10.80;99.90
47382;DHT22;33128;51.580;5.170;2023-01-15T13:42:48;10.80;99.90
47382;DHT22;33128;51.580;5.170;2023-01-15T13:47:48;10.80;99.90
47382;DHT22;33128;51.580;5.170;2023-01-15T13:50:36;10.80;99.90
47382;DHT22;33128;51.580;5.170;2023-01-15T13:53:21;10.90;99.90
47382;DHT22;33128;51.580;5.170;2023-01-15T13:56:05;10.90;99.90
47382;DHT22;33128;51.580;5.170;2023-01-15T13:58:37;10.70;99.90
47382;DHT22;33128;51.580;5.170;2023-01-15T14:01:25;10.80;99.90
47382;DHT22;33128;51.580;5.170;2023-01-15T14:06:36;10.90;99.90
47382;DHT22;33128;51.580;5.170;2023-01-15T14:09:03;10.90;99.90
47382;DHT22;33128;51.580;5.170;2023-01-15T14:34:17;11.00;99.90
47382;DHT22;33128;51.580;5.170;2023-01-15T14:42:13;11.00;99.90
47382;DHT22;33128;51.580;5.170;2023-01-15T14:47:47;11.10;99.90
47382;DHT22;33128;51.580;5.170;2023-01-15T14:55:46;11.30;99.90
47382;DHT22;33128;51.580;5.170;2023-01-15T15:00:59;11.00;99.90
47382;DHT22;33128;51.580;5.170;2023-01-15T15:03:34;11.10;99.90
47382;DHT22;33128;51.580;5.170;2023-01-15T15:06:05;11.10;99.90
47382;DHT22;33128;51.580;5.170;2023-01-15T15:08:35;11.10;99.90
47382;DHT22;33128;51.580;5.170;2023-01-15T15:11:04;11.10;99.90
47382;DHT22;33128;51.580;5.170;2023-01-15T15:13:50;11.20;99.90
47382;DHT22;33128;51.580;5.170;2023-01-15T15:16:27;11.00;99.90
47382;DHT22;33128;51.580;5.170;2023-01-15T15:19:06;11.00;99.90
47382;DHT22;33128;51.580;5.170;2023-01-15T15:21:41;11.00;99.90
47382;DHT22;33128;51.580;5.170;2023-01-15T15:24:29;11.10;99.90
47382;DHT22;33128;51.580;5.170;2023-01-15T15:27:07;11.00;99.90
47382;DHT22;33128;51.580;5.170;2023-01-15T15:29:32;11.00;99.90
47382;DHT22;33128;51.580;5.170;2023-01-15T15:31:58;11.00;99.90
47382;DHT22;33128;51.580;5.170;2023-01-15T15:34:34;11.10;99.90
47382;DHT22;33128;51.580;5.170;2023-01-15T15:37:26;11.10;99.90
47382;DHT22;33128;51.580;5.170;2023-01-15T15:40:14;11.10;99.90
47382;DHT22;33128;51.580;5.170;2023-01-15T15:43:04;11.10;99.90
47382;DHT22;33128;51.580;5.170;2023-01-15T15:45:54;11.00;99.90
47382;DHT22;33128;51.580;5.170;2023-01-15T15:48:39;11.00;99.90
47382;DHT22;33128;51.580;5.170;2023-01-15T15:54:17;11.00;99.90
47382;DHT22;33128;51.580;5.170;2023-01-15T15:57:07;11.00;99.90
47382;DHT22;33128;51.580;5.170;2023-01-15T15:59:45;10.90;99.90
47382;DHT22;33128;51.580;5.170;2023-01-15T16:02:37;11.00;99.90
47382;DHT22;33128;51.580;5.170;2023-01-15T16:05:26;11.00;99.90
47382;DHT22;33128;51.580;5.170;2023-01-15T16:07:53;11.00;99.90
47382;DHT22;33128;51.580;5.170;2023-01-15T16:10:28;11.00;99.90
47382;DHT22;33128;51.580;5.170;2023-01-15T16:12:59;11.00;99.90
47382;DHT22;33128;51.580;5.170;2023-01-15T16:15:35;11.00;99.90
47382;DHT22;33128;51.580;5.170;2023-01-15T16:18:02;11.00;99.90
47382;DHT22;33128;51.580;5.170;2023-01-15T16:20:28;10.90;99.90
47382;DHT22;33128;51.580;5.170;2023-01-15T16:22:59;10.90;99.90
47382;DHT22;33128;51.580;5.170;2023-01-15T16:25:32;10.90;99.90
47382;DHT22;33128;51.580;5.170;2023-01-15T16:27:59;11.00;99.90
47382;DHT22;33128;51.580;5.170;2023-01-15T16:30:25;10.90;99.90
47382;DHT22;33128;51.580;5.170;2023-01-15T16:32:52;11.10;99.90
47382;DHT22;33128;51.580;5.170;2023-01-15T16:35:20;11.10;99.90
47382;DHT22;33128;51.580;5.170;2023-01-15T16:37:50;11.10;99.90
47382;DHT22;33128;51.580;5.170;2023-01-15T16:40:37;11.10;99.90
47382;DHT22;33128;51.580;5.170;2023-01-15T16:43:06;11.10;99.90
47382;DHT22;33128;51.580;5.170;2023-01-15T16:45:33;11.20;99.90
47382;DHT22;33128;51.580;5.170;2023-01-15T16:50:33;11.20;99.90
47382;DHT22;33128;51.580;5.170;2023-01-15T16:53:00;11.10;99.90
47382;DHT22;33128;51.580;5.170;2023-01-15T16:55:47;11.00;99.90
47382;DHT22;33128;51.580;5.170;2023-01-15T16:58:18;11.10;99.90
47382;DHT22;33128;51.580;5.170;2023-01-15T17:00:51;11.20;99.90
47382;DHT22;33128;51.580;5.170;2023-01-15T17:03:20;11.20;99.90
47382;DHT22;33128;51.580;5.170;2023-01-15T17:05:47;11.10;99.90
47382;DHT22;33128;51.580;5.170;2023-01-15T17:08:20;11.10;99.90
47382;DHT22;33128;51.580;5.170;2023-01-15T17:10:57;11.00;99.90
47382;DHT22;33128;51.580;5.170;2023-01-15T17:13:35;11.00;99.90
47382;DHT22;33128;51.580;5.170;2023-01-15T17:18:38;11.00;99.90
47382;DHT22;33128;51.580;5.170;2023-01-15T17:21:04;10.80;99.90
47382;DHT22;33128;51.580;5.170;2023-01-15T17:23:35;10.90;99.90
47382;DHT22;33128;51.580;5.170;2023-01-15T17:26:02;10.90;99.90
47382;DHT22;33128;51.580;5.170;2023-01-15T17:28:31;11.00;99.90
47382;DHT22;33128;51.580;5.170;2023-01-15T17:31:01;11.00;99.90
47382;DHT22;33128;51.580;5.170;2023-01-15T17:33:27;11.00;99.90
47382;DHT22;33128;51.580;5.170;2023-01-15T17:35:52;10.90;99.90
47382;DHT22;33128;51.580;5.170;2023-01-15T17:38:18;10.90;99.90
47382;DHT22;33128;51.580;5.170;2023-01-15T17:40:44;10.90;99.90
47382;DHT22;33128;51.580;5.170;2023-01-15T17:43:14;10.90;99.90
47382;DHT22;33128;51.580;5.170;2023-01-15T17:45:40;10.90;99.90
47382;DHT22;33128;51.580;5.170;2023-01-15T17:48:06;11.00;99.90
47382;DHT22;33128;51.580;5.170;2023-01-15T17:50:38;10.90;99.90
47382;DHT22;33128;51.580;5.170;2023-01-15T17:53:05;10.90;99.90
47382;DHT22;33128;51.580;5.170;2023-01-15T17:55:31;11.00;99.90
47382;DHT22;33128;51.580;5.170;2023-01-15T17:58:16;10.90;99.90